createdAt,value
2023-04-28T00:00:25.957Z,97.92
2023-04-28T00:05:49.802Z,98.18
2023-04-28T00:10:53.579Z,98.31
2023-04-28T00:15:56.929Z,98.54
2023-04-28T00:21:00.803Z,98.56
2023-04-28T00:26:03.708Z,98.40
2023-04-28T00:31:14.046Z,98.50
2023-04-28T00:36:17.197Z,98.61
2023-04-28T00:41:20.296Z,98.87
2023-04-28T00:46:25.458Z,99.26
2023-04-28T00:51:29.384Z,99.49
2023-04-28T00:56:32.479Z,99.66
2023-04-28T01:01:35.822Z,99.81
2023-04-28T01:06:39.300Z,99.93
2023-04-28T01:11:42.759Z,99.99
2023-04-28T01:16:45.852Z,100.00
2023-04-28T01:21:49.546Z,100.00
2023-04-28T01:26:52.545Z,100.00
2023-04-28T01:31:55.684Z,100.00
2023-04-28T01:36:58.859Z,100.00
2023-04-28T01:42:02.474Z,100.00
2023-04-28T01:47:05.579Z,100.00
2023-04-28T01:52:08.691Z,100.00
2023-04-28T01:57:11.789Z,100.00
2023-04-28T02:02:15.017Z,100.00
2023-04-28T02:07:18.104Z,100.00
2023-04-28T02:12:21.722Z,100.00
2023-04-28T02:17:24.958Z,100.00
2023-04-28T02:22:27.829Z,100.00
2023-04-28T02:27:30.829Z,100.00
2023-04-28T02:32:33.976Z,100.00
2023-04-28T02:37:37.160Z,100.00
2023-04-28T02:42:40.053Z,100.00
2023-04-28T02:47:43.207Z,100.00
2023-04-28T02:52:48.334Z,100.00
2023-04-28T02:57:52.125Z,100.00
2023-04-28T03:02:55.694Z,100.00
2023-04-28T03:07:59.672Z,100.00
2023-04-28T03:13:02.673Z,100.00
2023-04-28T03:18:05.830Z,100.00
2023-04-28T03:23:08.883Z,100.00
2023-04-28T03:28:11.989Z,100.00
2023-04-28T03:33:14.889Z,100.00
2023-04-28T03:38:17.996Z,100.00
2023-04-28T03:43:21.407Z,100.00
2023-04-28T03:48:24.372Z,100.00
2023-04-28T03:53:27.519Z,100.00
2023-04-28T03:58:30.942Z,100.00
2023-04-28T04:03:34.140Z,100.00
2023-04-28T04:08:38.062Z,100.00
2023-04-28T04:13:41.077Z,100.00
2023-04-28T04:18:44.075Z,97.98
2023-04-28T04:23:47.384Z,92.76
2023-04-28T04:28:50.387Z,88.51
2023-04-28T04:33:53.698Z,82.77
2023-04-28T04:38:56.695Z,77.51
2023-04-28T04:43:59.600Z,73.66
2023-04-28T04:49:02.601Z,69.63
2023-04-28T04:54:05.612Z,66.14
2023-04-28T04:59:08.605Z,63.05
2023-04-28T05:04:11.775Z,59.65
2023-04-28T05:09:15.019Z,56.48
2023-04-28T05:14:18.275Z,53.35
2023-04-28T05:19:22.158Z,50.59
2023-04-28T05:24:25.380Z,48.27
2023-04-28T05:29:28.676Z,45.61
2023-04-28T05:34:31.797Z,43.55
2023-04-28T05:39:35.116Z,42.14
2023-04-28T05:44:38.196Z,39.12
2023-04-28T05:49:41.303Z,38.00
2023-04-28T05:54:44.315Z,37.43
2023-04-28T05:59:47.718Z,36.17
2023-04-28T06:04:51.180Z,35.11
2023-04-28T06:09:54.361Z,34.94
2023-04-28T06:14:58.370Z,34.24
2023-04-28T06:20:01.595Z,33.17
2023-04-28T06:25:05.678Z,31.85
2023-04-28T06:30:09.523Z,30.18
2023-04-28T06:35:12.530Z,29.57
2023-04-28T06:40:16.151Z,29.30
2023-04-28T06:45:19.268Z,27.99
2023-04-28T06:50:23.291Z,25.90
2023-04-28T06:55:27.066Z,25.70
2023-04-28T07:00:30.268Z,25.24
2023-04-28T07:05:34.470Z,24.86
2023-04-28T07:10:37.656Z,24.48
2023-04-28T07:15:41.879Z,23.73
2023-04-28T07:20:45.093Z,22.91
2023-04-28T07:25:48.113Z,22.27
2023-04-28T07:30:51.103Z,21.69
2023-04-28T07:35:54.406Z,20.91
2023-04-28T07:40:58.023Z,21.30
2023-04-28T07:46:01.201Z,20.99
2023-04-28T07:51:04.101Z,20.57
2023-04-28T07:56:07.650Z,20.50
2023-04-28T08:01:12.296Z,20.16
2023-04-28T08:06:15.392Z,20.85
2023-04-28T08:11:18.391Z,21.30
2023-04-28T08:16:23.069Z,22.40
2023-04-28T08:21:27.676Z,23.80
2023-04-28T08:26:31.491Z,22.35
2023-04-28T08:31:34.839Z,21.31
2023-04-28T08:36:38.222Z,21.44
2023-04-28T08:41:41.628Z,22.85
2023-04-28T08:46:45.296Z,24.91
2023-04-28T08:51:56.133Z,27.11
2023-04-28T08:56:59.486Z,26.90
2023-04-28T09:02:03.009Z,23.86
2023-04-28T09:07:11.488Z,21.56
2023-04-28T09:12:14.604Z,20.94
2023-04-28T09:17:18.225Z,20.37
2023-04-28T09:22:28.100Z,20.71
2023-04-28T09:27:31.194Z,21.11
2023-04-28T09:32:34.367Z,21.67
2023-04-28T09:37:38.012Z,23.26
2023-04-28T09:42:42.074Z,23.03
2023-04-28T09:47:47.332Z,21.17
2023-04-28T09:52:57.840Z,21.93
2023-04-28T09:58:02.436Z,23.90
2023-04-28T10:03:06.128Z,25.92
2023-04-28T10:08:11.908Z,27.93
2023-04-28T10:13:19.525Z,28.39
2023-04-28T10:18:23.376Z,28.44
2023-04-28T10:23:26.552Z,27.56
2023-04-28T10:28:30.067Z,26.76
2023-04-28T10:33:33.274Z,27.19
2023-04-28T10:38:36.692Z,28.96
2023-04-28T10:43:40.265Z,30.20
2023-04-28T10:48:49.300Z,30.71
2023-04-28T10:53:52.665Z,31.02
2023-04-28T10:58:56.723Z,31.77
2023-04-28T11:04:03.426Z,32.17
2023-04-28T11:09:14.280Z,32.28
2023-04-28T11:14:17.572Z,32.72
2023-04-28T11:19:21.811Z,32.72
2023-04-28T11:24:32.590Z,33.10
2023-04-28T11:29:36.929Z,33.25
2023-04-28T11:34:40.239Z,33.62
2023-04-28T11:39:43.648Z,31.96
2023-04-28T11:44:50.744Z,30.91
2023-04-28T11:49:53.751Z,31.33
2023-04-28T11:54:58.392Z,30.86
2023-04-28T12:00:15.268Z,31.15
2023-04-28T12:05:18.883Z,31.51
2023-04-28T12:10:22.375Z,32.18
2023-04-28T12:15:40.096Z,33.10
2023-04-28T12:20:43.925Z,32.85
2023-04-28T12:25:48.541Z,32.90
2023-04-28T12:31:04.392Z,32.90
2023-04-28T12:36:08.804Z,32.37
2023-04-28T12:41:12.121Z,32.51
2023-04-28T12:46:16.060Z,32.84
2023-04-28T12:51:19.559Z,32.27
2023-04-28T12:56:24.104Z,32.95
2023-04-28T13:01:27.750Z,33.29
2023-04-28T13:06:31.233Z,33.53
2023-04-28T13:11:34.646Z,32.44
2023-04-28T13:16:38.077Z,33.23
2023-04-28T13:21:42.598Z,33.36
2023-04-28T13:26:46.023Z,32.97
2023-04-28T13:31:49.031Z,32.79
2023-04-28T13:36:54.089Z,34.10
2023-04-28T13:41:57.179Z,34.04
2023-04-28T13:47:00.600Z,35.02
2023-04-28T13:52:03.990Z,35.42
2023-04-28T13:57:07.109Z,34.93
2023-04-28T14:02:11.920Z,34.38
2023-04-28T14:07:15.579Z,33.23
2023-04-28T14:12:18.566Z,33.89
2023-04-28T14:17:21.937Z,34.29
2023-04-28T14:22:25.078Z,34.70
2023-04-28T14:27:29.627Z,34.30
2023-04-28T14:32:32.785Z,34.08
2023-04-28T14:37:36.091Z,33.96
2023-04-28T14:42:39.254Z,33.71
2023-04-28T14:47:42.697Z,33.91
2023-04-28T14:52:46.013Z,34.71
2023-04-28T14:57:49.278Z,35.48
2023-04-28T15:02:52.559Z,34.96
2023-04-28T15:07:55.802Z,34.73
2023-04-28T15:12:58.801Z,34.81
2023-04-28T15:18:02.357Z,34.32
2023-04-28T15:23:05.528Z,33.79
2023-04-28T15:28:09.164Z,34.39
2023-04-28T15:33:17.828Z,34.71
2023-04-28T15:38:20.881Z,34.55
2023-04-28T15:43:25.446Z,35.10
2023-04-28T15:48:28.727Z,34.67
2023-04-28T15:53:32.243Z,34.81
2023-04-28T15:58:35.458Z,34.92
2023-04-28T16:03:39.781Z,35.46
2023-04-28T16:08:43.411Z,34.82
2023-04-28T16:13:46.412Z,34.87
2023-04-28T16:18:49.932Z,35.58
2023-04-28T16:23:52.952Z,35.74
2023-04-28T16:28:56.960Z,35.42
2023-04-28T16:34:00.704Z,35.61
2023-04-28T16:39:04.121Z,35.56
2023-04-28T16:44:08.433Z,35.99
2023-04-28T16:49:13.274Z,35.76
2023-04-28T16:54:16.792Z,35.85
2023-04-28T16:59:20.202Z,36.28
2023-04-28T17:04:24.276Z,36.64
2023-04-28T17:09:28.361Z,36.99
2023-04-28T17:14:31.680Z,37.56
2023-04-28T17:19:34.792Z,38.10
2023-04-28T17:24:38.006Z,38.37
2023-04-28T17:29:43.031Z,38.74
2023-04-28T17:34:46.549Z,39.24
2023-04-28T17:39:50.031Z,39.64
2023-04-28T17:44:53.475Z,40.21
2023-04-28T17:49:57.002Z,41.17
2023-04-28T17:54:59.991Z,42.09
2023-04-28T18:00:06.173Z,42.99
2023-04-28T18:05:10.790Z,44.18
2023-04-28T18:10:14.449Z,45.46
2023-04-28T18:15:17.950Z,46.26
2023-04-28T18:20:21.265Z,47.11
2023-04-28T18:25:25.897Z,48.14
2023-04-28T18:30:38.732Z,49.24
2023-04-28T18:35:41.947Z,50.88
2023-04-28T18:40:45.143Z,52.51
2023-04-28T18:45:48.407Z,53.39
2023-04-28T18:50:52.282Z,54.22
2023-04-28T18:55:56.947Z,55.39
2023-04-28T19:01:00.619Z,56.37
2023-04-28T19:06:06.525Z,57.88
2023-04-28T19:11:11.554Z,59.29
2023-04-28T19:16:16.428Z,59.74
2023-04-28T19:21:20.303Z,60.28
2023-04-28T19:26:23.597Z,60.85
2023-04-28T19:31:26.922Z,61.36
2023-04-28T19:36:30.371Z,62.27
2023-04-28T19:41:35.623Z,62.65
2023-04-28T19:46:38.898Z,62.74
2023-04-28T19:51:44.400Z,63.31
2023-04-28T19:56:47.816Z,63.59
2023-04-28T20:01:51.082Z,63.93
2023-04-28T20:06:54.737Z,64.37
2023-04-28T20:11:59.177Z,64.56
2023-04-28T20:17:04.084Z,64.87
2023-04-28T20:22:08.843Z,65.50
2023-04-28T20:27:13.378Z,65.58
2023-04-28T20:32:16.943Z,65.78
2023-04-28T20:37:23.500Z,66.50
2023-04-28T20:42:28.365Z,67.82
2023-04-28T20:47:32.320Z,69.37
2023-04-28T20:52:35.801Z,71.27
2023-04-28T20:57:39.308Z,71.80
2023-04-28T21:02:42.589Z,73.35
2023-04-28T21:07:46.337Z,74.01
2023-04-28T21:12:49.861Z,75.11
2023-04-28T21:17:52.911Z,75.34
2023-04-28T21:22:56.937Z,75.44
2023-04-28T21:28:01.662Z,75.34
2023-04-28T21:33:05.605Z,75.18
2023-04-28T21:38:08.762Z,75.38
2023-04-28T21:43:12.379Z,75.43
2023-04-28T21:48:15.590Z,75.68
2023-04-28T21:53:18.605Z,75.68
2023-04-28T21:58:21.600Z,75.89
2023-04-28T22:03:24.823Z,75.83
2023-04-28T22:08:28.015Z,75.59
2023-04-28T22:13:31.548Z,75.60
2023-04-28T22:18:34.838Z,75.93
2023-04-28T22:23:37.845Z,76.20
2023-04-28T22:28:40.743Z,76.17
2023-04-28T22:33:43.748Z,76.24
2023-04-28T22:38:46.747Z,76.54
2023-04-28T22:43:49.650Z,76.99
2023-04-28T22:48:52.891Z,77.22
2023-04-28T22:53:55.756Z,77.24
2023-04-28T22:58:58.665Z,77.46
2023-04-28T23:04:02.128Z,77.19
2023-04-28T23:09:05.790Z,77.16
2023-04-28T23:14:08.896Z,77.11
2023-04-28T23:19:11.926Z,77.17
2023-04-28T23:24:14.902Z,77.31
2023-04-28T23:29:17.916Z,77.88
2023-04-28T23:34:21.626Z,78.08
2023-04-28T23:39:25.352Z,78.17
2023-04-28T23:44:28.350Z,78.48
2023-04-28T23:49:31.355Z,78.63
2023-04-28T23:54:34.353Z,78.78
2023-04-28T23:59:37.253Z,79.13
